Rochefort, Belgium
Current Conditions -  °F | °C
As of 3:55 PM on Monday 22 Dec 2014 (Local Time) from EBFS Reporting Station
Drizzle Drizzle  
Wind Chill:   Ceiling: 800
Heat Index:   Visibility: 2.1mi
Dew Point:   Wind: 18mph
Humidity: 100%   Direction: 230°SW
Pressure: 30.18"   Gusts: NA
Location:  50.16°N, 5.22°E
Report Text: EBFS 221455Z 23016KT 3500 -DZ FEW004 SCT006 BKN008 08/08 Q1022 YLO YLO
Loading
Personal Weather Stations






























Interactive Weather Map New forecast layout! Learn more

10-Day Weather Forecast

Advertisements
Track Severe Weather on mobile